Time;durP1;ratioP1;P1;durP2;ratioP2;P2;SDS_P1;SDS_P2;PMS_P1;PMS_P2;Temp;Humidity;BMP_temperature;BMP_pressure;BME280_temperature;BME280_humidity;BME280_pressure;Samples;Min_cycle;Max_cycle;Signal;HPM_P1;HPM_P2
2022/08/03 00:04:46;;;;;;;9.95;4.72;;;;;;;19.91;70.27;100700.74;3688484;78;98766;-83
2022/08/03 00:09:47;;;;;;;8.63;4.70;;;;;;;19.90;70.42;100710.34;3690024;78;98885;-82
2022/08/03 00:14:48;;;;;;;9.53;4.25;;;;;;;19.87;70.70;100703.62;3696873;78;98740;-83
2022/08/03 00:19:49;;;;;;;8.50;4.60;;;;;;;19.87;70.83;100697.23;3687703;78;103918;-83
2022/08/03 00:24:50;;;;;;;8.55;4.17;;;;;;;19.84;71.00;100695.33;3694467;78;98814;-83
2022/08/03 00:29:51;;;;;;;7.83;4.25;;;;;;;19.82;71.12;100701.94;3688498;78;98887;-82
2022/08/03 00:34:52;;;;;;;8.18;4.03;;;;;;;19.77;71.15;100699.65;3681226;78;99089;-83
2022/08/03 00:39:53;;;;;;;9.00;4.17;;;;;;;19.73;71.35;100697.56;3671787;79;99128;-83
2022/08/03 00:44:54;;;;;;;8.73;4.05;;;;;;;19.68;71.46;100700.23;3678649;79;98900;-83
2022/08/03 00:49:55;;;;;;;7.17;3.53;;;;;;;19.64;71.72;100695.36;3662905;79;100732;-83
2022/08/03 00:54:56;;;;;;;7.70;4.70;;;;;;;19.61;71.92;100689.86;3675692;79;97955;-82
2022/08/03 00:59:58;;;;;;;9.03;4.35;;;;;;;19.56;72.02;100682.75;3672489;78;98924;-83
2022/08/03 01:05:00;;;;;;;8.23;3.77;;;;;;;19.54;72.05;100685.80;3678593;79;98860;-83
2022/08/03 01:10:18;;;;;;;6.90;3.50;;;;;;;19.49;72.23;100687.70;3672365;79;98959;-82
2022/08/03 01:15:30;;;;;;;7.30;4.10;;;;;;;19.47;72.26;100688.16;3678138;79;99262;-84
2022/08/03 01:20:36;;;;;;;7.12;3.72;;;;;;;19.45;72.54;100680.80;3673033;79;98966;-83
2022/08/03 01:25:54;;;;;;;7.35;4.05;;;;;;;19.44;72.67;100669.45;3677854;79;98468;-83
2022/08/03 01:31:01;;;;;;;7.97;4.35;;;;;;;19.41;72.78;100671.70;3671093;79;98641;-83
2022/08/03 01:36:09;;;;;;;7.62;4.28;;;;;;;19.41;72.85;100668.14;3656499;79;98764;-83
2022/08/03 01:41:27;;;;;;;8.73;4.62;;;;;;;19.40;72.89;100667.97;3671297;79;99273;-83
2022/08/03 01:46:30;;;;;;;8.08;4.65;;;;;;;19.40;72.93;100666.58;3674314;79;98902;-83
2022/08/03 01:51:33;;;;;;;9.15;4.30;;;;;;;19.38;72.95;100668.99;3671320;78;99352;-82
2022/08/03 01:56:37;;;;;;;7.53;4.28;;;;;;;19.38;73.30;100661.41;3641186;79;35407;-83
2022/08/03 02:01:39;;;;;;;9.55;4.70;;;;;;;19.38;73.42;100662.81;3670863;79;98983;-83
2022/08/03 02:06:42;;;;;;;7.72;4.62;;;;;;;19.40;73.47;100659.59;3677138;79;98889;-83
2022/08/03 02:11:44;;;;;;;8.43;4.45;;;;;;;19.42;73.56;100663.53;3671224;79;98778;-83
2022/08/03 02:16:47;;;;;;;11.10;5.20;;;;;;;19.42;73.62;100652.36;3678285;79;98881;-82
2022/08/03 02:21:50;;;;;;;7.03;4.37;;;;;;;19.44;73.58;100649.12;3665148;79;99150;-82
2022/08/03 02:26:55;;;;;;;8.13;4.65;;;;;;;19.45;73.57;100642.34;3677943;79;98841;-83
2022/08/03 02:31:59;;;;;;;9.18;4.37;;;;;;;19.46;73.61;100641.89;3670132;79;99063;-82
2022/08/03 02:37:03;;;;;;;8.18;5.25;;;;;;;19.48;73.35;100645.66;3639295;79;98706;-82
2022/08/03 02:42:08;;;;;;;9.23;4.53;;;;;;;19.48;72.77;100641.47;3647048;79;98818;-83
2022/08/03 02:47:12;;;;;;;8.30;5.35;;;;;;;19.46;73.01;100638.33;3639807;79;99177;-82
2022/08/03 02:52:14;;;;;;;8.65;5.28;;;;;;;19.47;72.84;100632.92;3646789;79;99111;-82
2022/08/03 02:57:18;;;;;;;10.50;5.40;;;;;;;19.49;72.95;100634.66;3646733;79;99086;-81
2022/08/03 03:02:20;;;;;;;8.08;4.95;;;;;;;19.46;72.41;100631.34;3644681;79;98855;-82
2022/08/03 03:07:22;;;;;;;10.53;4.87;;;;;;;19.45;72.39;100639.55;3639732;79;98925;-83
2022/08/03 03:12:25;;;;;;;11.40;5.42;;;;;;;19.46;72.62;100641.89;3662213;79;98878;-82
2022/08/03 03:17:27;;;;;;;8.93;5.83;;;;;;;19.45;72.39;100638.16;3641082;79;99027;-82
2022/08/03 03:22:30;;;;;;;10.55;6.03;;;;;;;19.45;72.30;100641.72;3638027;79;98794;-82
2022/08/03 03:27:33;;;;;;;11.30;5.85;;;;;;;19.44;72.33;100642.94;3628732;79;98892;-82
2022/08/03 03:32:35;;;;;;;11.12;5.95;;;;;;;19.42;72.47;100639.80;3649291;78;98971;-82
2022/08/03 03:37:37;;;;;;;11.38;5.87;;;;;;;19.43;72.36;100644.77;3699235;79;99241;-82
2022/08/03 03:42:38;;;;;;;8.78;5.28;;;;;;;19.43;72.47;100646.95;3686261;79;98989;-82
2022/08/03 03:47:39;;;;;;;8.05;5.12;;;;;;;19.45;72.47;100649.32;3688246;79;98720;-83
2022/08/03 03:52:40;;;;;;;10.55;6.30;;;;;;;19.45;72.50;100650.09;3678174;79;98856;-82
2022/08/03 03:57:41;;;;;;;10.23;5.08;;;;;;;19.43;72.55;100655.92;3678266;79;99003;-82
2022/08/03 04:02:43;;;;;;;11.53;5.65;;;;;;;19.45;72.61;100655.67;3672744;78;99218;-84
2022/08/03 04:13:21;;;;;;;10.68;5.75;;;;;;;19.54;72.73;100662.87;3658971;79;98697;-83
2022/08/03 04:18:25;;;;;;;9.93;6.15;;;;;;;19.58;72.68;100669.17;3674578;79;99125;-84
2022/08/03 04:23:30;;;;;;;11.63;6.17;;;;;;;19.67;72.54;100675.56;3676405;79;98735;-83
2022/08/03 04:28:33;;;;;;;10.53;5.80;;;;;;;19.70;72.61;100671.29;3696682;78;99036;-82
2022/08/03 04:33:37;;;;;;;11.48;5.97;;;;;;;19.74;72.41;100667.81;3675902;79;99013;-83
2022/08/03 04:38:55;;;;;;;11.00;5.62;;;;;;;19.78;72.41;100677.51;3695190;79;34828;-82
2022/08/03 04:43:59;;;;;;;13.98;6.83;;;;;;;19.81;72.46;100671.84;3681165;79;99195;-81
2022/08/03 04:49:01;;;;;;;10.60;5.92;;;;;;;19.90;72.57;100674.03;3694405;79;98838;-82
2022/08/03 04:54:02;;;;;;;11.85;6.15;;;;;;;19.98;72.69;100682.41;3673036;79;99040;-83
2022/08/03 04:59:03;;;;;;;10.23;6.47;;;;;;;20.06;72.66;100670.64;3678488;79;99040;-83
2022/08/03 05:04:04;;;;;;;9.73;6.53;;;;;;;20.13;72.70;100669.72;3668429;79;99487;-81
2022/08/03 05:09:06;;;;;;;11.60;6.90;;;;;;;20.24;72.62;100670.25;3678193;79;98850;-83
2022/08/03 05:14:07;;;;;;;13.72;7.45;;;;;;;20.34;72.34;100674.20;3672576;79;98764;-83
2022/08/03 05:19:08;;;;;;;11.08;5.85;;;;;;;20.44;72.13;100673.75;3674074;79;98775;-81
2022/08/03 05:24:09;;;;;;;9.53;5.92;;;;;;;20.57;71.94;100681.59;3667860;79;98767;-83
2022/08/03 05:29:10;;;;;;;11.53;6.30;;;;;;;20.75;71.78;100690.30;3674135;79;99267;-81
2022/08/03 05:34:11;;;;;;;17.60;6.70;;;;;;;21.04;71.72;100692.56;3661763;79;98902;-82
2022/08/03 05:39:12;;;;;;;14.83;6.05;;;;;;;21.39;71.28;100695.76;3651741;79;98863;-82
2022/08/03 05:44:13;;;;;;;21.68;6.47;;;;;;;21.94;69.58;100666.70;3642391;79;98655;-83
2022/08/03 05:49:14;;;;;;;16.62;5.85;;;;;;;21.94;69.58;100666.70;3651157;79;99446;-81
2022/08/03 05:54:14;;;;;;;12.80;5.60;;;;;;;22.49;68.89;100681.53;3646815;79;99197;-83
2022/08/03 05:59:16;;;;;;;12.18;5.78;;;;;;;23.11;68.46;100682.59;3645906;79;98983;-81
2022/08/03 06:04:17;;;;;;;14.38;4.33;;;;;;;23.96;66.87;100697.84;3646166;79;99015;-83
2022/08/03 06:09:18;;;;;;;12.65;5.65;;;;;;;24.80;64.43;100694.40;3658619;79;98985;-84
2022/08/03 06:14:19;;;;;;;10.18;4.58;;;;;;;25.35;62.58;100691.77;3649997;79;98600;-84
2022/08/03 06:19:20;;;;;;;7.90;4.35;;;;;;;25.85;61.05;100705.92;3657156;79;98683;-85
2022/08/03 06:24:21;;;;;;;7.95;4.40;;;;;;;26.31;59.80;100698.09;3662518;79;98696;-83
2022/08/03 06:29:22;;;;;;;10.20;4.90;;;;;;;26.84;58.22;100698.42;3649127;79;99376;-83
2022/08/03 06:34:23;;;;;;;7.58;4.37;;;;;;;27.27;56.85;100694.97;3639696;78;99005;-84
2022/08/03 06:39:24;;;;;;;9.35;3.98;;;;;;;27.59;55.40;100695.44;3660711;79;98836;-84
2022/08/03 06:44:25;;;;;;;6.78;3.58;;;;;;;27.59;54.50;100701.09;3678415;79;98372;-82
2022/08/03 06:49:26;;;;;;;8.90;4.17;;;;;;;27.57;54.41;100693.72;3674137;79;98670;-82
2022/08/03 06:54:27;;;;;;;8.65;4.25;;;;;;;27.41;53.28;100706.91;3653811;79;98703;-85
2022/08/03 06:59:28;;;;;;;9.90;4.42;;;;;;;27.23;53.32;100700.64;3690286;79;98879;-83
2022/08/03 07:04:29;;;;;;;9.43;4.08;;;;;;;27.01;53.24;100700.16;3687976;79;99226;-83
2022/08/03 07:09:30;;;;;;;6.25;4.10;;;;;;;26.83;53.35;100701.10;3676048;80;99163;-82
2022/08/03 07:14:32;;;;;;;8.30;4.58;;;;;;;26.66;53.65;100704.20;3680284;78;98735;-82
2022/08/03 07:19:33;;;;;;;9.53;4.78;;;;;;;26.75;54.12;100700.53;3677130;79;98659;-85
2022/08/03 07:24:34;;;;;;;11.93;4.50;;;;;;;26.76;54.08;100705.67;3649831;79;98839;-81
2022/08/03 07:29:35;;;;;;;8.70;4.67;;;;;;;26.82;54.05;100705.81;3674704;79;99004;-81
2022/08/03 07:34:36;;;;;;;11.78;4.10;;;;;;;26.88;54.08;100706.09;3653405;79;98846;-80
2022/08/03 07:39:37;;;;;;;9.83;4.78;;;;;;;26.83;53.97;100710.98;3596014;81;99478;-80
2022/08/03 07:44:38;;;;;;;12.15;4.28;;;;;;;26.91;54.03;100702.94;3585088;81;98901;-80
2022/08/03 07:49:40;;;;;;;8.28;4.50;;;;;;;26.95;54.10;100698.66;3591559;81;98555;-79
2022/08/03 07:54:41;;;;;;;7.78;3.80;;;;;;;27.05;53.58;100696.53;3576804;81;98733;-80
2022/08/03 07:59:46;;;;;;;7.92;4.15;;;;;;;27.08;52.84;100694.16;3606592;81;98815;-79
2022/08/03 08:04:47;;;;;;;8.10;4.47;;;;;;;27.17;53.16;100696.92;3583694;81;99277;-80
2022/08/03 08:09:48;;;;;;;6.78;4.20;;;;;;;27.23;52.71;100692.95;3572053;81;98762;-81
2022/08/03 08:14:49;;;;;;;6.87;3.92;;;;;;;27.37;53.20;100700.69;3510536;81;98814;-83
2022/08/03 08:19:50;;;;;;;7.17;3.60;;;;;;;27.73;52.73;100700.95;3595497;80;98940;-79
2022/08/03 08:24:51;;;;;;;8.80;4.25;;;;;;;28.24;52.47;100698.48;3599883;80;98685;-80
2022/08/03 08:29:52;;;;;;;9.40;4.12;;;;;;;28.98;51.51;100703.45;3602324;80;98812;-79
2022/08/03 08:34:53;;;;;;;6.05;3.42;;;;;;;29.73;49.47;100699.77;3620270;80;99415;-81
2022/08/03 08:39:56;;;;;;;7.35;3.35;;;;;;;30.48;48.28;100698.08;3701602;78;98829;-80
2022/08/03 08:44:58;;;;;;;7.53;3.87;;;;;;;31.30;47.26;100688.41;3677762;78;98718;-81
2022/08/03 08:50:02;;;;;;;7.78;4.00;;;;;;;32.18;46.76;100685.01;3701580;78;98950;-80
2022/08/03 08:55:06;;;;;;;7.13;3.80;;;;;;;33.15;45.15;100687.36;3690385;78;98611;-81
2022/08/03 09:00:15;;;;;;;9.98;3.77;;;;;;;34.00;43.72;100682.13;3679213;78;99047;-80
2022/08/03 09:05:17;;;;;;;6.05;3.33;;;;;;;34.61;42.33;100688.70;3667144;78;98822;-79
2022/08/03 09:10:20;;;;;;;7.85;3.67;;;;;;;35.22;40.59;100689.52;3708823;78;98891;-83
2022/08/03 09:15:31;;;;;;;7.92;3.58;;;;;;;35.73;38.56;100686.84;3702395;78;98820;-80
2022/08/03 09:20:35;;;;;;;7.90;4.10;;;;;;;36.09;38.76;100690.94;3700148;78;98548;-80
2022/08/03 09:25:40;;;;;;;6.87;3.92;;;;;;;36.69;37.70;100686.86;3707119;78;98680;-82
2022/08/03 09:30:45;;;;;;;5.25;3.42;;;;;;;36.98;35.97;100685.06;3697014;78;98591;-79
2022/08/03 09:35:55;;;;;;;7.45;3.77;;;;;;;37.16;36.16;100677.68;3636670;78;98891;-80
2022/08/03 09:40:52;;;;;;;5.80;3.58;;;;;;;37.78;35.33;100681.45;3597081;81;98814;-80
2022/08/03 09:46:03;;;;;;;6.97;3.53;;;;;;;38.13;34.77;100675.11;3599691;81;99254;-80
2022/08/03 09:51:05;;;;;;;7.95;4.45;;;;;;;38.33;33.90;100672.84;3592749;81;99193;-80
2022/08/03 09:56:06;;;;;;;6.03;3.67;;;;;;;38.81;33.73;100669.94;3588771;81;25878;-80
2022/08/03 10:01:07;;;;;;;6.72;3.62;;;;;;;39.10;32.31;100662.80;3587699;81;98805;-80
2022/08/03 10:06:25;;;;;;;5.53;3.55;;;;;;;39.11;32.10;100666.46;3557420;82;97642;-81
2022/08/03 10:11:31;;;;;;;5.42;3.02;;;;;;;38.95;31.64;100661.29;3593960;81;98782;-82
2022/08/03 10:16:39;;;;;;;4.53;3.20;;;;;;;38.92;31.02;100663.88;3597219;81;98052;-82
2022/08/03 10:21:48;;;;;;;7.55;3.15;;;;;;;38.79;29.96;100659.64;3601473;80;98957;-79
2022/08/03 10:26:50;;;;;;;5.53;3.12;;;;;;;38.71;30.35;100659.50;3596077;81;98771;-81
2022/08/03 10:31:55;;;;;;;6.20;3.77;;;;;;;38.80;29.45;100648.23;3590174;81;98798;-80
2022/08/03 10:36:59;;;;;;;6.35;3.65;;;;;;;39.06;28.37;100660.20;3637904;79;99108;-81
2022/08/03 10:42:01;;;;;;;8.80;3.50;;;;;;;38.03;27.79;100658.25;3677954;79;98953;-82
2022/08/03 10:47:04;;;;;;;6.15;3.33;;;;;;;37.87;29.43;100640.05;3679506;79;98852;-79
2022/08/03 10:52:05;;;;;;;6.62;3.10;;;;;;;37.88;29.79;100644.50;3677806;79;98809;-80
2022/08/03 11:03:05;;;;;;;3.70;2.12;;;;;;;39.03;29.17;100644.05;3668994;79;98789;-81
2022/08/03 11:08:29;;;;;;;4.58;2.08;;;;;;;38.78;26.29;100622.14;3690611;78;25957;-79
2022/08/03 11:13:32;;;;;;;4.62;2.40;;;;;;;38.58;24.66;100640.94;3678510;79;98610;-79
2022/08/03 11:18:34;;;;;;;4.15;2.77;;;;;;;38.08;25.37;100640.84;3674988;79;99124;-79
2022/08/03 11:23:47;;;;;;;3.80;2.35;;;;;;;38.19;24.85;100636.91;3652824;79;98784;-80
2022/08/03 11:28:49;;;;;;;3.52;2.45;;;;;;;38.34;25.52;100619.73;3660424;79;98833;-82
2022/08/03 11:34:07;;;;;;;3.72;2.62;;;;;;;38.08;24.37;100627.15;3662525;79;98730;-79
2022/08/03 11:39:15;;;;;;;3.65;2.60;;;;;;;38.22;25.30;100620.73;3670762;79;98821;-84
2022/08/03 11:44:40;;;;;;;6.10;2.70;;;;;;;38.63;25.58;100624.93;3613185;80;98304;-80
2022/08/03 11:49:41;;;;;;;4.72;2.40;;;;;;;38.86;25.42;100616.45;3554921;80;98536;-80
2022/08/03 11:54:42;;;;;;;4.78;2.45;;;;;;;38.75;24.97;100601.70;3619108;80;98601;-79
2022/08/03 11:59:43;;;;;;;4.10;2.55;;;;;;;38.66;24.13;100607.98;3615413;80;98889;-80
2022/08/03 12:04:59;;;;;;;4.78;2.12;;;;;;;38.34;23.76;100607.58;3623366;80;98799;-81
2022/08/03 12:10:12;;;;;;;6.25;2.75;;;;;;;38.49;23.82;100603.39;3678807;78;98828;-79
2022/08/03 12:15:13;;;;;;;6.58;3.05;;;;;;;38.65;24.52;100604.23;3679453;79;98776;-79
2022/08/03 12:20:21;;;;;;;4.92;2.67;;;;;;;38.90;24.78;100590.95;3677679;79;98761;-84
2022/08/03 12:25:26;;;;;;;4.53;2.42;;;;;;;39.03;24.42;100593.02;3680771;79;98695;-81
2022/08/03 12:30:27;;;;;;;4.92;2.60;;;;;;;38.94;24.12;100591.33;3679658;79;98907;-79
2022/08/03 12:35:28;;;;;;;3.95;2.37;;;;;;;38.68;24.29;100593.04;3678926;79;98755;-79
2022/08/03 12:40:29;;;;;;;4.65;2.55;;;;;;;38.70;23.90;100581.72;3687065;78;99320;-80
2022/08/03 12:45:31;;;;;;;5.22;2.52;;;;;;;38.55;24.43;100574.45;3699750;78;98840;-87
2022/08/03 12:50:35;;;;;;;4.33;2.85;;;;;;;38.38;23.94;100572.70;3701147;78;98549;-83
2022/08/03 12:55:37;;;;;;;6.72;2.60;;;;;;;37.71;23.61;100573.73;3664973;78;98740;-80
2022/08/03 13:00:39;;;;;;;4.83;2.23;;;;;;;37.42;24.29;100560.62;3685254;78;98680;-80
2022/08/03 13:05:45;;;;;;;4.72;2.90;;;;;;;37.72;24.61;100553.75;3693716;78;98839;-80
2022/08/03 13:10:47;;;;;;;7.40;2.60;;;;;;;37.73;24.25;100556.72;3688607;78;98513;-82
2022/08/03 13:15:48;;;;;;;5.03;2.90;;;;;;;37.81;25.21;100556.78;3700120;78;98826;-80
2022/08/03 13:20:49;;;;;;;3.75;2.40;;;;;;;37.53;24.05;100561.02;3694959;78;98818;-80
2022/08/03 13:25:50;;;;;;;5.45;2.90;;;;;;;37.27;25.69;100545.36;3698542;78;25842;-81
2022/08/03 13:30:53;;;;;;;4.55;2.65;;;;;;;37.50;25.54;100547.77;3691175;78;98603;-80
2022/08/03 13:35:54;;;;;;;4.37;2.50;;;;;;;37.36;24.93;100549.94;3689609;80;99576;-80
2022/08/03 13:40:55;;;;;;;4.28;2.33;;;;;;;37.43;25.56;100538.43;3626402;79;98824;-80
2022/08/03 13:45:56;;;;;;;5.15;2.87;;;;;;;37.41;25.45;100541.08;3621920;79;98858;-82
2022/08/03 13:50:57;;;;;;;4.10;2.80;;;;;;;37.45;25.61;100539.41;3616698;79;98776;-83
2022/08/03 13:55:58;;;;;;;4.45;2.80;;;;;;;37.00;25.18;100535.29;3639615;79;25853;-84
2022/08/03 14:00:59;;;;;;;4.90;2.80;;;;;;;36.36;25.02;100539.17;3629535;79;99010;-81
2022/08/03 14:06:00;;;;;;;4.85;2.62;;;;;;;36.34;25.57;100527.47;3634503;79;97950;-83
2022/08/03 14:11:02;;;;;;;6.22;2.55;;;;;;;36.02;25.65;100523.92;3635139;79;98863;-80
2022/08/03 14:16:04;;;;;;;4.37;2.75;;;;;;;36.00;26.78;100520.06;3629025;79;98769;-80
2022/08/03 14:21:05;;;;;;;4.37;2.40;;;;;;;36.07;27.78;100521.61;3627065;79;98727;-79
2022/08/03 14:26:08;;;;;;;5.67;2.77;;;;;;;36.09;27.12;100523.94;3634757;79;25937;-82
2022/08/03 14:31:09;;;;;;;3.90;2.60;;;;;;;36.12;27.42;100509.95;3651708;79;98954;-80
2022/08/03 14:36:10;;;;;;;6.00;2.50;;;;;;;36.09;26.84;100501.80;3636191;79;98612;-80
2022/08/03 14:41:11;;;;;;;4.20;2.30;;;;;;;35.52;27.03;100497.55;3639925;79;98864;-80
2022/08/03 14:46:12;;;;;;;5.50;2.62;;;;;;;35.45;28.30;100503.25;3667708;79;98849;-83
2022/08/03 14:51:13;;;;;;;4.10;2.37;;;;;;;35.46;27.17;100505.46;3667972;79;99240;-83
2022/08/03 14:56:14;;;;;;;4.62;2.55;;;;;;;35.50;27.55;100491.57;3682111;79;26026;-81
2022/08/03 15:01:15;;;;;;;6.55;2.85;;;;;;;35.36;27.56;100496.50;3656417;79;98846;-80
2022/08/03 15:06:16;;;;;;;3.95;2.37;;;;;;;35.42;29.20;100495.73;3674016;79;98633;-80
2022/08/03 15:11:17;;;;;;;5.08;2.62;;;;;;;35.51;29.78;100485.95;3667289;79;98812;-80
2022/08/03 15:16:18;;;;;;;7.58;2.62;;;;;;;35.35;28.53;100483.52;3664318;79;98893;-82
2022/08/03 15:21:19;;;;;;;3.95;2.85;;;;;;;35.02;27.71;100484.69;3666578;79;99472;-81
2022/08/03 15:26:20;;;;;;;6.58;2.87;;;;;;;34.73;27.15;100482.78;3674448;79;26609;-80
2022/08/03 15:31:23;;;;;;;4.50;2.62;;;;;;;34.42;27.47;100485.70;3623895;80;98653;-82
2022/08/03 15:36:24;;;;;;;5.35;2.77;;;;;;;34.29;28.21;100478.48;3569595;81;99009;-85
2022/08/03 15:41:25;;;;;;;7.33;3.55;;;;;;;34.02;27.92;100483.08;3618248;80;99313;-82
2022/08/03 15:46:26;;;;;;;5.78;2.85;;;;;;;33.85;28.58;100486.14;3625002;80;98949;-80
2022/08/03 15:51:27;;;;;;;6.97;3.08;;;;;;;33.78;28.69;100481.00;3600161;80;98827;-80
2022/08/03 15:56:28;;;;;;;5.92;2.92;;;;;;;33.67;29.57;100474.63;3617847;80;33296;-81
2022/08/03 16:01:30;;;;;;;6.45;3.33;;;;;;;33.43;29.60;100480.30;3694228;78;98622;-82
2022/08/03 16:06:31;;;;;;;4.67;2.55;;;;;;;33.32;29.72;100474.70;3704578;78;98683;-80
2022/08/03 16:11:33;;;;;;;5.92;3.00;;;;;;;33.11;30.12;100467.85;3686179;80;98823;-80
2022/08/03 16:16:38;;;;;;;6.20;2.42;;;;;;;32.92;30.35;100463.46;3697629;79;99189;-80
2022/08/03 16:21:37;;;;;;;4.87;3.00;;;;;;;32.82;30.10;100457.98;3679301;78;98774;-82
2022/08/03 16:26:38;;;;;;;4.65;2.85;;;;;;;32.56;29.50;100459.68;3687547;78;33683;-80
2022/08/03 16:31:39;;;;;;;5.67;3.17;;;;;;;32.28;30.27;100461.91;3692097;78;98429;-85
2022/08/03 16:36:40;;;;;;;7.50;3.12;;;;;;;32.10;30.56;100463.25;3712307;78;98662;-81
2022/08/03 16:41:41;;;;;;;5.85;2.90;;;;;;;31.90;30.97;100459.98;3658884;79;98941;-83
2022/08/03 16:46:43;;;;;;;4.35;2.72;;;;;;;31.68;31.48;100457.17;3676780;79;98858;-83
2022/08/03 16:51:44;;;;;;;6.50;3.52;;;;;;;31.48;31.92;100458.88;3667650;79;98878;-80
2022/08/03 16:56:45;;;;;;;6.70;3.20;;;;;;;31.34;32.58;100457.87;3675860;79;33342;-81
2022/08/03 17:01:47;;;;;;;5.97;3.30;;;;;;;31.22;32.74;100462.69;3676018;79;98802;-82
2022/08/03 17:06:48;;;;;;;8.18;3.17;;;;;;;31.16;33.06;100462.64;3674912;79;99045;-82
2022/08/03 17:11:51;;;;;;;4.95;3.27;;;;;;;31.10;33.49;100462.51;3672135;79;98841;-84
2022/08/03 17:16:59;;;;;;;6.78;3.98;;;;;;;31.04;33.35;100467.42;3662976;79;98780;-81
2022/08/03 17:22:04;;;;;;;4.90;2.65;;;;;;;30.90;33.34;100468.47;3667639;79;98703;-81
2022/08/03 17:27:10;;;;;;;7.03;3.10;;;;;;;30.81;33.70;100468.70;3648623;80;98806;-81
2022/08/03 17:32:15;;;;;;;7.50;3.60;;;;;;;30.71;34.51;100471.66;3667816;79;98697;-83
2022/08/03 17:37:16;;;;;;;5.13;3.30;;;;;;;30.63;34.43;100471.35;3672267;78;99100;-83
2022/08/03 17:42:17;;;;;;;8.80;4.08;;;;;;;30.57;34.62;100475.48;3689902;78;98868;-81
2022/08/03 17:47:19;;;;;;;10.20;4.17;;;;;;;30.48;35.09;100470.03;3695222;78;98720;-81
2022/08/03 17:52:34;;;;;;;5.85;3.77;;;;;;;30.41;35.17;100474.80;3684619;78;98995;-81
2022/08/03 17:57:55;;;;;;;5.90;3.35;;;;;;;30.34;35.23;100478.14;3696909;78;98820;-83
2022/08/03 18:03:18;;;;;;;7.95;3.65;;;;;;;30.24;35.65;100481.83;3684438;78;99044;-81
2022/08/03 18:08:31;;;;;;;8.08;3.20;;;;;;;30.17;35.93;100476.66;3667278;78;38311;-80
2022/08/03 18:13:56;;;;;;;6.55;3.58;;;;;;;30.09;36.38;100483.30;3687664;78;98635;-82
2022/08/03 18:18:59;;;;;;;7.37;4.57;;;;;;;30.00;37.10;100479.24;3695951;78;99002;-83
2022/08/03 18:24:03;;;;;;;11.25;6.20;;;;;;;29.86;37.60;100485.23;3692936;78;98720;-82
2022/08/03 18:29:05;;;;;;;15.73;9.07;;;;;;;29.71;38.69;100490.33;3699970;78;98215;-82
2022/08/03 18:34:08;;;;;;;9.03;5.50;;;;;;;29.54;39.79;100489.42;3693648;78;98971;-80
2022/08/03 18:39:11;;;;;;;11.70;4.70;;;;;;;29.40;40.64;100499.48;3703182;78;98723;-80
2022/08/03 18:44:13;;;;;;;12.93;6.40;;;;;;;29.21;41.25;100499.07;3687490;78;98543;-80
2022/08/03 18:49:45;;;;;;;9.58;4.53;;;;;;;29.06;41.75;100503.33;3694340;78;98859;-81
2022/08/03 18:55:04;;;;;;;7.78;4.33;;;;;;;28.89;42.53;100504.55;3698518;78;98663;-81
2022/08/03 19:00:12;;;;;;;8.00;4.30;;;;;;;28.70;43.20;100511.05;3654338;78;98767;-80
2022/08/03 19:05:15;;;;;;;8.55;4.28;;;;;;;28.50;44.02;100513.94;3701133;78;99450;-81
2022/08/03 19:10:17;;;;;;;11.25;5.45;;;;;;;28.32;44.67;100514.97;3690120;78;98823;-81
2022/08/03 19:15:20;;;;;;;11.33;6.05;;;;;;;28.16;45.29;100519.03;3701698;78;98329;-81
2022/08/03 19:20:27;;;;;;;28.10;19.23;;;;;;;27.99;46.16;100516.59;3689022;78;98791;-81
2022/08/03 19:25:29;;;;;;;15.93;9.40;;;;;;;27.82;46.77;100529.10;3700127;78;99336;-81
2022/08/03 19:30:34;;;;;;;14.78;10.32;;;;;;;27.66;47.42;100527.39;3696759;78;98806;-82
2022/08/03 19:35:42;;;;;;;25.25;20.35;;;;;;;27.50;48.07;100525.88;3692071;78;99128;-82
2022/08/03 19:40:46;;;;;;;17.30;12.43;;;;;;;27.35;48.57;100520.11;3666658;78;99905;-82
2022/08/03 19:45:51;;;;;;;25.33;17.23;;;;;;;27.19;49.35;100522.79;3668376;79;99478;-82
2022/08/03 19:50:54;;;;;;;21.82;16.30;;;;;;;27.05;49.73;100522.77;3677931;79;99114;-82
2022/08/03 19:55:57;;;;;;;16.12;11.33;;;;;;;26.88;50.32;100525.31;3674016;79;26446;-84
2022/08/03 20:00:59;;;;;;;14.90;9.15;;;;;;;26.76;50.80;100521.35;3671494;79;99062;-82
2022/08/03 20:06:01;;;;;;;9.18;6.10;;;;;;;26.64;51.26;100525.23;3651819;79;99045;-82
2022/08/03 20:11:02;;;;;;;10.85;5.42;;;;;;;26.52;51.91;100531.25;3673637;79;98944;-82
2022/08/03 20:16:04;;;;;;;8.40;4.97;;;;;;;26.39;52.36;100527.12;3673008;78;99011;-82
2022/08/03 20:21:12;;;;;;;7.58;5.03;;;;;;;26.28;52.93;100529.73;3603109;80;99178;-82
2022/08/03 20:26:18;;;;;;;9.20;5.12;;;;;;;26.18;53.28;100537.48;3627012;80;25857;-82
2022/08/03 20:31:20;;;;;;;7.05;4.62;;;;;;;26.05;53.52;100532.69;3623053;80;98756;-82
2022/08/03 20:36:21;;;;;;;7.67;4.70;;;;;;;25.94;54.16;100535.27;3632048;80;98663;-81
2022/08/03 20:41:22;;;;;;;7.53;4.58;;;;;;;25.85;54.45;100535.31;3609957;80;98801;-82
2022/08/03 20:46:23;;;;;;;8.10;5.03;;;;;;;25.76;54.90;100538.17;3535473;80;98842;-82
2022/08/03 20:51:25;;;;;;;10.80;5.62;;;;;;;25.65;55.24;100538.53;3528521;82;98766;-82
2022/08/03 20:56:35;;;;;;;7.25;4.67;;;;;;;25.57;55.58;100542.97;3547859;81;33717;-82
2022/08/03 21:01:36;;;;;;;8.93;5.55;;;;;;;25.48;55.81;100541.58;3587319;80;98633;-83
2022/08/03 21:06:52;;;;;;;9.65;4.85;;;;;;;25.38;56.17;100552.73;3608044;80;98705;-81
2022/08/03 21:11:54;;;;;;;6.70;4.40;;;;;;;25.29;56.61;100558.41;3544822;82;98901;-82
2022/08/03 21:16:58;;;;;;;9.30;4.75;;;;;;;25.22;56.84;100556.67;3607240;82;98838;-81
2022/08/03 21:22:01;;;;;;;9.15;4.72;;;;;;;25.14;57.07;100551.84;3547305;82;98940;-81
2022/08/03 21:27:02;;;;;;;8.08;5.30;;;;;;;25.04;57.33;100555.31;3546638;82;98937;-82
2022/08/03 21:32:06;;;;;;;8.03;5.00;;;;;;;24.97;57.58;100556.27;3609226;80;98530;-82
2022/08/03 21:37:07;;;;;;;9.43;5.03;;;;;;;24.91;58.02;100558.16;3615432;80;98730;-82
2022/08/03 21:42:08;;;;;;;8.55;4.95;;;;;;;24.85;58.35;100557.22;3604535;80;98679;-81
2022/08/03 21:47:12;;;;;;;7.42;4.67;;;;;;;24.77;58.38;100556.76;3625555;80;99111;-82
2022/08/03 21:52:15;;;;;;;7.70;5.30;;;;;;;24.70;58.66;100556.30;3665877;78;98912;-82
2022/08/03 21:57:23;;;;;;;7.70;5.40;;;;;;;24.64;58.60;100560.34;3669923;79;98836;-82
2022/08/03 22:02:28;;;;;;;8.98;6.08;;;;;;;24.58;58.33;100557.23;3655598;79;98870;-81
2022/08/03 22:07:30;;;;;;;8.03;5.45;;;;;;;24.49;58.33;100559.39;3666318;79;98619;-82
2022/08/03 22:12:33;;;;;;;9.00;5.85;;;;;;;24.45;58.23;100560.78;3651932;79;98667;-82
2022/08/03 22:17:36;;;;;;;9.90;5.58;;;;;;;24.35;57.83;100565.63;3668502;79;98860;-82
2022/08/03 22:22:38;;;;;;;9.50;5.78;;;;;;;24.30;58.10;100567.65;3657175;78;98770;-82
2022/08/03 22:27:44;;;;;;;13.13;6.97;;;;;;;24.21;57.97;100562.03;3668111;79;98792;-82
2022/08/03 22:32:46;;;;;;;11.75;6.00;;;;;;;24.16;57.90;100566.06;3665747;79;98671;-82
2022/08/03 22:37:51;;;;;;;8.90;5.85;;;;;;;24.09;58.22;100561.52;3639109;79;33284;-82
2022/08/03 22:42:54;;;;;;;9.60;5.87;;;;;;;24.09;58.29;100572.77;3654842;79;98710;-82
2022/08/03 22:47:55;;;;;;;10.72;6.45;;;;;;;24.08;58.57;100575.42;3662253;78;98746;-81
2022/08/03 22:52:56;;;;;;;11.15;6.55;;;;;;;24.08;58.97;100577.47;3653404;78;98966;-81
2022/08/03 22:57:57;;;;;;;11.70;6.37;;;;;;;24.06;59.12;100588.38;3671155;79;99027;-82
2022/08/03 23:03:01;;;;;;;11.40;7.25;;;;;;;24.05;59.47;100587.62;3647611;79;99030;-82
2022/08/03 23:08:05;;;;;;;12.53;6.62;;;;;;;24.05;59.57;100586.22;3665902;79;33226;-81
2022/08/03 23:13:06;;;;;;;11.20;7.28;;;;;;;23.97;59.39;100580.70;3653758;79;98768;-81
2022/08/03 23:18:08;;;;;;;12.80;6.80;;;;;;;23.95;59.91;100587.43;3670415;79;98969;-81
2022/08/03 23:23:09;;;;;;;11.68;7.15;;;;;;;23.90;59.42;100590.84;3659581;79;99015;-83
2022/08/03 23:28:16;;;;;;;12.53;7.35;;;;;;;23.83;59.85;100596.73;3663537;79;98991;-82
2022/08/03 23:33:18;;;;;;;12.00;7.00;;;;;;;23.76;59.71;100596.23;3668663;78;98962;-82
2022/08/03 23:38:20;;;;;;;13.05;8.00;;;;;;;23.72;60.03;100596.37;3655386;79;25869;-82